createdAt,value
2023-01-02T00:01:20.411Z,2.18
2023-01-02T00:03:47.086Z,2.17
2023-01-02T00:06:13.772Z,2.18
2023-01-02T00:08:40.198Z,2.19
2023-01-02T00:11:06.599Z,2.11
2023-01-02T00:13:33.071Z,2.08
2023-01-02T00:15:59.597Z,2.21
2023-01-02T00:18:26.124Z,2.10
2023-01-02T00:20:52.544Z,2.11
2023-01-02T00:23:18.984Z,2.22
2023-01-02T00:25:47.455Z,2.13
2023-01-02T00:28:13.892Z,2.27
2023-01-02T00:30:40.344Z,2.08
2023-01-02T00:33:07.341Z,2.10
2023-01-02T00:35:34.023Z,2.24
2023-01-02T00:38:00.494Z,2.08
2023-01-02T00:40:26.955Z,2.08
2023-01-02T00:42:53.392Z,2.05
2023-01-02T00:45:19.954Z,2.12
2023-01-02T00:47:46.410Z,2.15
2023-01-02T00:50:12.935Z,2.19
2023-01-02T00:52:39.391Z,2.35
2023-01-02T00:55:06.111Z,2.04
2023-01-02T00:57:32.590Z,1.94
2023-01-02T00:59:59.044Z,1.82
2023-01-02T01:02:26.091Z,1.84
2023-01-02T01:04:52.694Z,1.91
2023-01-02T01:07:19.128Z,1.82
2023-01-02T01:09:45.564Z,1.83
2023-01-02T01:12:12.000Z,1.87
2023-01-02T01:14:38.415Z,2.01
2023-01-02T01:17:04.948Z,1.87
2023-01-02T01:19:32.190Z,1.93
2023-01-02T01:21:58.736Z,2.07
2023-01-02T01:24:25.623Z,1.83
2023-01-02T01:26:52.122Z,1.89
2023-01-02T01:29:19.503Z,1.57
2023-01-02T01:31:46.119Z,1.55
2023-01-02T01:34:12.923Z,1.67
2023-01-02T01:36:39.480Z,1.86
2023-01-02T01:39:06.146Z,1.74
2023-01-02T01:41:32.609Z,1.89
2023-01-02T01:44:00.137Z,1.71
2023-01-02T01:46:38.332Z,1.75
2023-01-02T01:49:16.421Z,1.92
2023-01-02T01:51:45.593Z,1.76
2023-01-02T01:54:14.490Z,1.96
2023-01-02T01:56:43.503Z,1.84
2023-01-02T01:59:10.837Z,1.78
2023-01-02T02:01:37.934Z,1.89
2023-01-02T02:04:04.606Z,1.70
2023-01-02T02:06:31.065Z,1.88
2023-01-02T02:09:00.316Z,1.86
2023-01-02T02:11:27.190Z,1.59
2023-01-02T02:13:58.324Z,1.63
2023-01-02T02:16:33.875Z,1.62
2023-01-02T02:19:06.156Z,1.56
2023-01-02T02:21:46.253Z,1.56
2023-01-02T02:24:25.401Z,1.40
2023-01-02T02:27:10.768Z,1.44
2023-01-02T02:29:43.401Z,1.27
2023-01-02T02:32:13.021Z,1.42
2023-01-02T02:34:47.579Z,1.43
2023-01-02T02:37:23.017Z,1.27
2023-01-02T02:39:59.350Z,1.45
2023-01-02T02:42:33.162Z,1.43
2023-01-02T02:45:05.635Z,1.20
2023-01-02T02:47:43.258Z,1.30
2023-01-02T02:50:33.122Z,1.41
2023-01-02T02:53:12.961Z,1.31
2023-01-02T02:55:43.644Z,1.25
2023-01-02T02:58:10.323Z,1.35
2023-01-02T03:00:36.739Z,1.28
2023-01-02T03:03:13.779Z,1.02
2023-01-02T03:05:41.999Z,1.12
2023-01-02T03:08:16.137Z,1.18
2023-01-02T03:10:42.547Z,1.20
2023-01-02T03:13:12.206Z,1.07
2023-01-02T03:15:48.799Z,1.22
2023-01-02T03:18:22.205Z,1.28
2023-01-02T03:20:52.363Z,1.25
2023-01-02T03:23:20.979Z,1.32
2023-01-02T03:25:47.965Z,1.43
2023-01-02T03:28:17.092Z,1.50
2023-01-02T03:30:45.213Z,1.30
2023-01-02T03:33:17.431Z,1.38
2023-01-02T03:35:50.043Z,1.48
2023-01-02T03:38:22.314Z,1.51
2023-01-02T03:40:50.914Z,1.45
2023-01-02T03:43:21.431Z,1.27
2023-01-02T03:45:56.958Z,1.13
2023-01-02T03:49:01.779Z,1.16
2023-01-02T03:51:28.285Z,1.06
2023-01-02T03:53:54.885Z,1.12
2023-01-02T03:56:24.387Z,1.29
2023-01-02T03:59:00.130Z,1.19
2023-01-02T04:01:33.792Z,1.01
2023-01-02T04:04:08.819Z,0.99
2023-01-02T04:06:38.039Z,1.06
2023-01-02T04:09:07.180Z,1.15
2023-01-02T04:11:35.091Z,1.23
2023-01-02T04:14:07.431Z,1.30
2023-01-02T04:16:35.373Z,1.28
2023-01-02T04:19:05.582Z,0.96
2023-01-02T04:21:34.396Z,0.85
2023-01-02T04:24:07.857Z,0.83
2023-01-02T04:26:36.764Z,1.02
2023-01-02T04:29:03.416Z,0.99
2023-01-02T04:31:38.630Z,0.65
2023-01-02T04:34:05.881Z,0.69
2023-01-02T04:36:37.549Z,0.61
2023-01-02T04:39:04.163Z,0.78
2023-01-02T04:41:31.270Z,0.85
2023-01-02T04:43:58.163Z,0.62
2023-01-02T04:46:25.641Z,0.77
2023-01-02T04:48:52.890Z,0.76
2023-01-02T04:51:19.391Z,0.70
2023-01-02T04:53:49.295Z,0.80
2023-01-02T04:56:15.939Z,0.69
2023-01-02T04:58:43.310Z,0.76
2023-01-02T05:01:13.736Z,0.87
2023-01-02T05:03:41.118Z,0.78
2023-01-02T05:06:07.945Z,0.75
2023-01-02T05:08:34.928Z,0.78
2023-01-02T05:11:05.435Z,0.61
2023-01-02T05:13:31.879Z,0.61
2023-01-02T05:15:58.387Z,0.59
2023-01-02T05:18:24.848Z,0.71
2023-01-02T05:20:51.293Z,0.73
2023-01-02T05:23:36.564Z,0.94
2023-01-02T05:26:03.026Z,0.84
2023-01-02T05:28:33.746Z,0.91
2023-01-02T05:31:04.876Z,1.04
2023-01-02T05:33:31.323Z,0.94
2023-01-02T05:35:58.131Z,1.08
2023-01-02T05:38:24.597Z,0.91
2023-01-02T05:40:58.992Z,0.92
2023-01-02T05:43:25.424Z,0.78
2023-01-02T05:45:51.844Z,0.82
2023-01-02T05:48:18.273Z,0.99
2023-01-02T05:50:44.805Z,0.96
2023-01-02T05:53:11.256Z,0.97
2023-01-02T05:55:37.700Z,1.20
2023-01-02T05:58:04.248Z,1.40
2023-01-02T06:00:30.704Z,1.89
2023-01-02T06:02:57.241Z,1.44
2023-01-02T06:05:23.785Z,1.28
2023-01-02T06:07:50.246Z,1.23
2023-01-02T06:10:16.702Z,1.03
2023-01-02T06:12:43.114Z,1.02
2023-01-02T06:15:09.766Z,1.09
2023-01-02T06:17:36.258Z,1.00
2023-01-02T06:20:02.739Z,1.02
2023-01-02T06:22:29.181Z,0.96
2023-01-02T06:24:55.621Z,0.87
2023-01-02T06:27:22.191Z,0.90
2023-01-02T06:29:48.646Z,0.93
2023-01-02T06:32:15.146Z,1.09
2023-01-02T06:34:41.710Z,1.02
2023-01-02T06:37:10.184Z,1.07
2023-01-02T06:39:36.998Z,0.94
2023-01-02T06:42:03.499Z,0.89
2023-01-02T06:44:29.932Z,0.86
2023-01-02T06:46:56.457Z,0.91
2023-01-02T06:49:22.870Z,0.91
2023-01-02T06:51:49.350Z,0.89
2023-01-02T06:54:15.964Z,0.98
2023-01-02T06:56:42.449Z,0.97
2023-01-02T06:59:09.691Z,1.09
2023-01-02T07:01:36.314Z,1.23
2023-01-02T07:04:02.832Z,0.91
2023-01-02T07:06:29.324Z,0.75
2023-01-02T07:08:55.844Z,0.97
2023-01-02T07:11:23.414Z,1.18
2023-01-02T07:13:51.276Z,1.29
2023-01-02T07:16:18.917Z,1.38
2023-01-02T07:18:45.709Z,1.50
2023-01-02T07:21:12.732Z,1.70
2023-01-02T07:23:39.496Z,1.54
2023-01-02T07:26:06.813Z,2.24
2023-01-02T07:28:33.978Z,2.59
2023-01-02T07:31:01.895Z,2.37
2023-01-02T07:33:29.048Z,2.57
2023-01-02T07:35:59.175Z,2.71
2023-01-02T07:38:25.767Z,2.52
2023-01-02T07:40:52.289Z,2.69
2023-01-02T07:43:19.104Z,2.89
2023-01-02T07:45:49.942Z,2.98
2023-01-02T07:48:17.168Z,3.20
2023-01-02T07:50:43.673Z,3.35
2023-01-02T07:53:10.180Z,3.06
2023-01-02T07:55:36.648Z,2.98
2023-01-02T07:58:03.104Z,2.92
2023-01-02T08:00:29.589Z,3.01
2023-01-02T08:02:56.096Z,3.57
2023-01-02T08:05:22.593Z,3.47
2023-01-02T08:07:49.083Z,3.83
2023-01-02T08:10:15.588Z,3.33
2023-01-02T08:12:42.105Z,3.19
2023-01-02T08:15:08.671Z,3.41
2023-01-02T08:17:35.195Z,3.66
2023-01-02T08:20:07.247Z,3.35
2023-01-02T08:22:34.642Z,3.89
2023-01-02T08:25:01.231Z,4.47
2023-01-02T08:27:27.788Z,3.95
2023-01-02T08:29:54.232Z,3.68
2023-01-02T08:32:20.733Z,3.63
2023-01-02T08:34:47.224Z,4.25
2023-01-02T08:37:14.139Z,4.97
2023-01-02T08:39:40.634Z,4.97
2023-01-02T08:42:07.383Z,5.31
2023-01-02T08:44:34.560Z,5.33
2023-01-02T08:47:01.484Z,5.61
2023-01-02T08:49:27.914Z,5.87
2023-01-02T08:51:54.331Z,6.43
2023-01-02T08:54:20.860Z,6.13
2023-01-02T08:56:48.410Z,5.63
2023-01-02T08:59:14.988Z,5.87
2023-01-02T09:01:41.626Z,6.10
2023-01-02T09:04:12.449Z,5.95
2023-01-02T09:06:39.200Z,5.71
2023-01-02T09:09:11.369Z,5.97
2023-01-02T09:11:39.687Z,6.18
2023-01-02T09:14:06.239Z,5.67
2023-01-02T09:16:33.032Z,6.10
2023-01-02T09:19:00.444Z,6.16
2023-01-02T09:21:28.197Z,6.69
2023-01-02T09:23:54.639Z,7.57
2023-01-02T09:26:21.194Z,8.05
2023-01-02T09:28:47.640Z,8.00
2023-01-02T09:31:15.438Z,7.89
2023-01-02T09:33:42.497Z,7.84
2023-01-02T09:36:09.922Z,7.96
2023-01-02T09:38:36.776Z,7.89
2023-01-02T09:41:10.938Z,8.10
2023-01-02T09:43:39.634Z,7.93
2023-01-02T09:46:08.298Z,8.72
2023-01-02T09:48:37.734Z,9.16
2023-01-02T09:51:07.739Z,8.72
2023-01-02T09:53:35.069Z,9.44
2023-01-02T09:56:10.667Z,9.00
2023-01-02T09:58:37.095Z,9.44
2023-01-02T10:01:04.188Z,9.85
2023-01-02T10:03:30.736Z,10.22
2023-01-02T10:06:12.163Z,10.36
2023-01-02T10:08:49.182Z,10.68
2023-01-02T10:11:34.514Z,11.45
2023-01-02T10:14:18.553Z,11.75
2023-01-02T10:16:49.027Z,12.04
2023-01-02T10:19:32.814Z,11.65
2023-01-02T10:22:00.773Z,11.94
2023-01-02T10:24:44.382Z,12.30
2023-01-02T10:27:27.221Z,13.34
2023-01-02T10:30:16.938Z,13.09
2023-01-02T10:32:47.051Z,12.28
2023-01-02T10:35:22.815Z,11.97
2023-01-02T10:37:49.299Z,13.05
2023-01-02T10:40:16.434Z,12.62
2023-01-02T10:42:43.563Z,13.58
2023-01-02T10:45:16.060Z,13.19
2023-01-02T10:47:42.483Z,13.47
2023-01-02T10:50:14.604Z,13.26
2023-01-02T10:52:50.190Z,13.57
2023-01-02T10:55:46.295Z,13.61
2023-01-02T10:58:26.587Z,13.21
2023-01-02T11:01:22.687Z,14.45
2023-01-02T11:04:09.740Z,13.68
2023-01-02T11:06:40.128Z,13.38
2023-01-02T11:09:20.891Z,14.83
2023-01-02T11:11:51.657Z,14.84
2023-01-02T11:14:21.538Z,14.02
2023-01-02T11:16:48.042Z,14.34
2023-01-02T11:19:20.431Z,15.32
2023-01-02T11:21:49.684Z,14.59
2023-01-02T11:24:19.741Z,14.17
2023-01-02T11:26:47.798Z,14.48
2023-01-02T11:29:31.685Z,14.58
2023-01-02T11:32:00.448Z,14.71
2023-01-02T11:34:30.379Z,14.69
2023-01-02T11:37:12.181Z,14.98
2023-01-02T11:39:38.947Z,14.82
2023-01-02T11:42:27.272Z,15.25
2023-01-02T11:44:53.983Z,15.68
2023-01-02T11:47:29.123Z,15.06
2023-01-02T11:49:55.710Z,15.89
2023-01-02T11:52:26.291Z,15.25
2023-01-02T11:54:57.369Z,15.09
2023-01-02T11:57:56.465Z,14.79
2023-01-02T12:00:24.248Z,15.20
2023-01-02T12:02:54.064Z,15.93
2023-01-02T12:05:25.474Z,15.83
2023-01-02T12:08:00.046Z,15.82
2023-01-02T12:10:26.870Z,15.13
2023-01-02T12:12:59.429Z,15.53
2023-01-02T12:15:55.469Z,15.96
2023-01-02T12:18:36.867Z,16.37
2023-01-02T12:21:03.276Z,15.82
2023-01-02T12:23:39.836Z,15.00
2023-01-02T12:26:14.526Z,15.01
2023-01-02T12:28:59.755Z,16.11
2023-01-02T12:31:29.288Z,15.93
2023-01-02T12:34:08.239Z,16.32
2023-01-02T12:36:34.707Z,16.14
2023-01-02T12:39:04.174Z,16.44
2023-01-02T12:42:00.492Z,15.96
2023-01-02T12:44:37.872Z,15.75
2023-01-02T12:47:19.464Z,16.03
2023-01-02T12:49:51.428Z,15.66
2023-01-02T12:52:31.587Z,15.91
2023-01-02T12:55:13.409Z,16.21
2023-01-02T12:57:42.944Z,14.99
2023-01-02T13:00:19.532Z,15.20
2023-01-02T13:03:04.225Z,15.54
2023-01-02T13:05:53.869Z,15.62
2023-01-02T13:08:32.968Z,15.93
2023-01-02T13:11:01.380Z,15.40
2023-01-02T13:13:31.925Z,14.81
2023-01-02T13:16:03.453Z,15.28
2023-01-02T13:19:00.747Z,15.73
2023-01-02T13:21:43.922Z,14.83
2023-01-02T13:24:16.572Z,14.55
2023-01-02T13:26:43.322Z,16.09
2023-01-02T13:29:09.842Z,16.12
2023-01-02T13:31:47.398Z,15.33
2023-01-02T13:34:22.473Z,15.74
2023-01-02T13:36:50.397Z,15.37
2023-01-02T13:39:28.484Z,15.64
2023-01-02T13:42:17.437Z,15.56
2023-01-02T13:44:46.814Z,15.31
2023-01-02T13:47:25.795Z,14.79
2023-01-02T13:50:06.220Z,15.12
2023-01-02T13:52:32.841Z,14.91
2023-01-02T13:55:28.569Z,14.77
2023-01-02T13:58:30.479Z,14.31
2023-01-02T14:00:57.082Z,14.00
2023-01-02T14:03:23.881Z,14.11
2023-01-02T14:05:56.877Z,14.88
2023-01-02T14:08:43.604Z,15.51
2023-01-02T14:11:17.074Z,14.93
2023-01-02T14:13:45.306Z,14.47
2023-01-02T14:16:14.795Z,14.10
2023-01-02T14:18:46.466Z,13.61
2023-01-02T14:21:16.096Z,13.28
2023-01-02T14:24:16.338Z,12.92
2023-01-02T14:26:36.476Z,11.91
2023-01-02T14:29:11.762Z,12.13
2023-01-02T14:31:38.756Z,11.60
2023-01-02T14:34:05.319Z,11.66
2023-01-02T14:36:37.081Z,11.15
2023-01-02T14:39:03.691Z,10.97
2023-01-02T14:42:06.837Z,10.94
2023-01-02T14:44:34.496Z,10.53
2023-01-02T14:47:02.351Z,10.40
2023-01-02T14:49:30.553Z,10.27
2023-01-02T14:52:02.453Z,9.99
2023-01-02T14:54:32.715Z,10.68
2023-01-02T14:57:02.622Z,10.02
2023-01-02T14:59:31.778Z,10.07
2023-01-02T15:02:01.103Z,9.75
2023-01-02T15:04:38.862Z,9.35
2023-01-02T15:07:23.950Z,9.16
2023-01-02T15:09:53.289Z,8.97
2023-01-02T15:12:41.635Z,9.06
2023-01-02T15:15:15.806Z,8.97
2023-01-02T15:17:43.983Z,9.06
2023-01-02T15:20:16.680Z,8.75
2023-01-02T15:22:43.170Z,8.53
2023-01-02T15:25:12.237Z,8.51
2023-01-02T15:27:40.956Z,8.35
2023-01-02T15:30:24.932Z,8.17
2023-01-02T15:32:51.440Z,8.18
2023-01-02T15:35:28.638Z,8.21
2023-01-02T15:37:55.575Z,8.00
2023-01-02T15:40:33.604Z,7.81
2023-01-02T15:43:20.445Z,7.94
2023-01-02T15:45:48.330Z,7.77
2023-01-02T15:48:15.489Z,7.73
2023-01-02T15:50:42.580Z,7.66
2023-01-02T15:53:24.422Z,7.68
2023-01-02T15:55:51.050Z,7.52
2023-01-02T15:58:22.103Z,7.49
2023-01-02T16:00:48.723Z,7.29
2023-01-02T16:04:02.203Z,7.10
2023-01-02T16:06:41.309Z,7.00
2023-01-02T16:09:16.612Z,6.91
2023-01-02T16:11:45.943Z,7.02
2023-01-02T16:14:20.335Z,6.77
2023-01-02T16:16:46.909Z,6.79
2023-01-02T16:19:19.285Z,6.52
2023-01-02T16:21:46.720Z,6.61
2023-01-02T16:24:16.950Z,6.68
2023-01-02T16:26:43.546Z,6.77
2023-01-02T16:29:19.993Z,6.79
2023-01-02T16:31:54.008Z,6.55
2023-01-02T16:34:31.665Z,5.87
2023-01-02T16:37:24.976Z,5.78
2023-01-02T16:39:51.603Z,6.08
2023-01-02T16:42:36.579Z,5.85
2023-01-02T16:45:03.733Z,5.97
2023-01-02T16:47:35.270Z,6.08
2023-01-02T16:50:03.111Z,6.32
2023-01-02T16:52:29.641Z,6.15
2023-01-02T16:54:56.162Z,6.12
2023-01-02T16:57:23.227Z,6.04
2023-01-02T16:59:49.679Z,5.88
2023-01-02T17:02:16.132Z,5.80
2023-01-02T17:04:42.756Z,5.66
2023-01-02T17:07:09.776Z,5.71
2023-01-02T17:09:36.222Z,5.61
2023-01-02T17:12:03.265Z,5.77
2023-01-02T17:14:31.588Z,5.63
2023-01-02T17:16:58.238Z,5.59
2023-01-02T17:19:24.742Z,5.75
2023-01-02T17:21:52.048Z,5.68
2023-01-02T17:24:18.546Z,5.36
2023-01-02T17:26:45.213Z,5.41
2023-01-02T17:29:11.708Z,5.35
2023-01-02T17:31:38.399Z,5.48
2023-01-02T17:34:05.125Z,5.31
2023-01-02T17:36:31.991Z,5.38
2023-01-02T17:38:58.807Z,5.30
2023-01-02T17:41:25.475Z,5.25
2023-01-02T17:44:01.837Z,5.31
2023-01-02T17:47:05.087Z,5.30
2023-01-02T17:49:17.356Z,5.10
2023-01-02T17:51:43.897Z,5.01
2023-01-02T17:54:10.322Z,5.02
2023-01-02T17:56:36.763Z,4.99
2023-01-02T17:59:03.582Z,5.03
2023-01-02T18:01:30.204Z,4.93
2023-01-02T18:03:56.858Z,4.81
2023-01-02T18:06:23.413Z,4.70
2023-01-02T18:08:51.149Z,4.72
2023-01-02T18:11:18.010Z,4.74
2023-01-02T18:13:49.509Z,4.56
2023-01-02T18:16:17.920Z,4.64
2023-01-02T18:18:45.650Z,4.82
2023-01-02T18:21:13.184Z,5.01
2023-01-02T18:23:40.202Z,5.10
2023-01-02T18:26:13.857Z,4.60
2023-01-02T18:28:41.629Z,4.42
2023-01-02T18:31:13.839Z,4.36
2023-01-02T18:33:40.567Z,4.43
2023-01-02T18:36:16.355Z,4.49
2023-01-02T18:38:44.414Z,4.41
2023-01-02T18:41:24.594Z,4.38
2023-01-02T18:43:54.100Z,4.23
2023-01-02T18:46:22.174Z,4.32
2023-01-02T18:48:48.972Z,4.21
2023-01-02T18:51:22.342Z,4.23
2023-01-02T18:53:49.996Z,4.21
2023-01-02T18:56:18.739Z,4.17
2023-01-02T18:58:51.511Z,4.15
2023-01-02T19:01:21.008Z,4.08
2023-01-02T19:03:48.033Z,4.15
2023-01-02T19:06:22.157Z,4.21
2023-01-02T19:08:48.609Z,4.49
2023-01-02T19:11:38.330Z,4.17
2023-01-02T19:14:12.356Z,4.27
2023-01-02T19:16:39.728Z,4.19
2023-01-02T19:19:11.526Z,4.19
2023-01-02T19:21:38.061Z,4.27
2023-01-02T19:24:11.388Z,4.32
2023-01-02T19:27:01.141Z,4.36
2023-01-02T19:29:30.043Z,4.60
2023-01-02T19:31:59.607Z,4.77
2023-01-02T19:34:38.609Z,5.22
2023-01-02T19:37:11.156Z,5.69
2023-01-02T19:39:42.408Z,6.25
2023-01-02T19:42:21.933Z,6.46
2023-01-02T19:44:52.330Z,6.91
2023-01-02T19:47:19.479Z,7.25
2023-01-02T19:49:46.077Z,7.45
2023-01-02T19:52:12.665Z,7.18
2023-01-02T19:54:39.897Z,7.63
2023-01-02T19:57:07.220Z,7.42
2023-01-02T19:59:38.557Z,7.41
2023-01-02T20:02:08.250Z,6.97
2023-01-02T20:04:34.749Z,7.07
2023-01-02T20:07:01.231Z,7.03
2023-01-02T20:09:29.441Z,7.00
2023-01-02T20:12:14.547Z,6.58
2023-01-02T20:14:41.284Z,6.31
2023-01-02T20:17:08.318Z,6.02
2023-01-02T20:19:34.778Z,6.05
2023-01-02T20:22:01.720Z,5.71
2023-01-02T20:24:28.253Z,5.65
2023-01-02T20:26:55.672Z,5.42
2023-01-02T20:29:22.304Z,5.38
2023-01-02T20:31:48.850Z,5.60
2023-01-02T20:34:15.649Z,5.62
2023-01-02T20:36:42.238Z,5.40
2023-01-02T20:39:09.413Z,5.42
2023-01-02T20:41:38.481Z,5.30
2023-01-02T20:44:05.240Z,5.00
2023-01-02T20:46:32.105Z,5.08
2023-01-02T20:48:58.587Z,5.03
2023-01-02T20:51:25.171Z,4.82
2023-01-02T20:53:53.249Z,4.60
2023-01-02T20:56:19.662Z,4.52
2023-01-02T20:58:47.102Z,4.53
2023-01-02T21:01:13.933Z,5.13
2023-01-02T21:03:40.531Z,5.18
2023-01-02T21:06:06.976Z,5.74
2023-01-02T21:08:33.565Z,5.48
2023-01-02T21:11:00.045Z,5.28
2023-01-02T21:13:26.497Z,5.18
2023-01-02T21:15:53.077Z,5.12
2023-01-02T21:18:24.094Z,4.94
2023-01-02T21:20:52.846Z,4.91
2023-01-02T21:23:20.037Z,4.87
2023-01-02T21:25:46.991Z,4.90
2023-01-02T21:28:13.973Z,4.88
2023-01-02T21:30:40.840Z,4.83
2023-01-02T21:33:08.056Z,4.96
2023-01-02T21:35:35.296Z,4.79
2023-01-02T21:38:02.227Z,4.76
2023-01-02T21:40:28.803Z,4.67
2023-01-02T21:42:55.481Z,4.75
2023-01-02T21:45:22.355Z,4.61
2023-01-02T21:47:48.948Z,4.62
2023-01-02T21:50:15.427Z,4.50
2023-01-02T21:52:41.951Z,4.43
2023-01-02T21:55:08.866Z,4.41
2023-01-02T21:58:11.148Z,4.15
2023-01-02T22:00:23.796Z,4.79
2023-01-02T22:02:50.737Z,4.62
2023-01-02T22:05:17.914Z,4.07
2023-01-02T22:07:44.690Z,4.15
2023-01-02T22:10:12.163Z,4.21
2023-01-02T22:12:39.499Z,4.18
2023-01-02T22:15:06.984Z,4.06
2023-01-02T22:17:33.508Z,3.89
2023-01-02T22:20:01.092Z,3.94
2023-01-02T22:22:27.617Z,3.73
2023-01-02T22:24:54.251Z,3.74
2023-01-02T22:27:21.815Z,3.66
2023-01-02T22:30:20.541Z,3.67
2023-01-02T22:32:35.944Z,3.69
2023-01-02T22:35:03.336Z,3.93
2023-01-02T22:37:29.812Z,3.77
2023-01-02T22:39:56.251Z,3.62
2023-01-02T22:43:01.533Z,3.70
2023-01-02T22:45:31.615Z,3.61
2023-01-02T22:47:59.667Z,3.52
2023-01-02T22:50:28.290Z,3.29
2023-01-02T22:52:55.546Z,2.98
2023-01-02T22:55:23.486Z,2.92
2023-01-02T22:57:51.673Z,2.91
2023-01-02T23:00:21.660Z,2.91
2023-01-02T23:02:48.643Z,3.05
2023-01-02T23:05:16.731Z,2.96
2023-01-02T23:07:45.088Z,3.04
2023-01-02T23:10:12.182Z,3.11
2023-01-02T23:12:38.864Z,3.07
2023-01-02T23:15:06.256Z,3.07
2023-01-02T23:17:51.515Z,2.95
2023-01-02T23:20:18.439Z,2.87
2023-01-02T23:22:47.901Z,2.87
2023-01-02T23:25:15.091Z,2.89
2023-01-02T23:27:41.589Z,2.89
2023-01-02T23:30:08.254Z,2.97
2023-01-02T23:32:34.795Z,2.82
2023-01-02T23:35:01.220Z,2.73
2023-01-02T23:37:27.749Z,2.80
2023-01-02T23:39:54.313Z,2.88
2023-01-02T23:42:20.771Z,2.82
2023-01-02T23:44:47.220Z,2.84
2023-01-02T23:47:18.908Z,2.77
2023-01-02T23:49:45.803Z,2.67
2023-01-02T23:52:12.417Z,2.85
2023-01-02T23:54:38.854Z,2.71
2023-01-02T23:57:05.367Z,2.63
2023-01-02T23:59:31.867Z,2.90
